Time;durP1;ratioP1;P1;durP2;ratioP2;P2;SDS_P1;SDS_P2;PMS_P1;PMS_P2;Temp;Humidity;BMP_temperature;BMP_pressure;BME280_temperature;BME280_humidity;BME280_pressure;Samples;Min_cycle;Max_cycle;Signal;HPM_P1;HPM_P2
2022/10/13 00:01:22;;;;;;;;;;;;;;;;;;5014956;28;7397;-80
2022/10/13 00:03:49;;;;;;;;;;;;;;;;;;5015593;28;8614;-80
2022/10/13 00:06:17;;;;;;;;;;;;;;;;;;5014962;28;7168;-75
2022/10/13 00:08:43;;;;;;;;;;;;;;;;;;5014960;28;8405;-79
2022/10/13 00:11:29;;;;;;;;;;;;;;;;;;5015369;28;7102;-79
2022/10/13 00:14:00;;;;;;;;;;;;;;;;;;5014810;28;7147;-80
2022/10/13 00:16:27;;;;;;;;;;;;;;;;;;5015232;28;8469;-79
2022/10/13 00:18:53;;;;;;;;;;;;;;;;;;5014817;28;7168;-79
2022/10/13 00:21:21;;;;;;;;;;;;;;;;;;5014695;28;8404;-79
2022/10/13 00:23:47;;;;;;;;;;;;;;;;;;5015803;28;8386;-80
2022/10/13 00:26:15;;;;;;;;;;;;;;;;;;5014682;28;7422;-80
2022/10/13 00:28:41;;;;;;;;;;;;;;;;;;5015099;28;8404;-79
2022/10/13 00:31:24;;;;;;;;;;;;;;;;;;5015123;28;7166;-82
2022/10/13 00:33:49;;;;;;;;;;;;;;;;;;5015333;28;8662;-79
2022/10/13 00:36:15;;;;;;;;;;;;;;;;;;5014749;28;7022;-80
2022/10/13 00:38:41;;;;;;;;;;;;;;;;;;5014456;28;8529;-81
2022/10/13 00:41:06;;;;;;;;;;;;;;;;;;5014014;28;8369;-81
2022/10/13 00:43:54;;;;;;;;;;;;;;;;;;5014429;28;7002;-81
2022/10/13 00:46:21;;;;;;;;;;;;;;;;;;5014911;28;7156;-81
2022/10/13 00:48:48;;;;;;;;;;;;;;;;;;5015242;28;7045;-80
2022/10/13 00:51:15;;;;;;;;;;;;;;;;;;5014141;28;8601;-80
2022/10/13 00:53:42;;;;;;;;;;;;;;;;;;5014334;28;8423;-79
2022/10/13 00:56:10;;;;;;;;;;;;;;;;;;5014500;28;7154;-80
2022/10/13 00:58:38;;;;;;;;;;;;;;;;;;5014382;28;8657;-81
2022/10/13 01:01:05;;;;;;;;;;;;;;;;;;5013992;28;8403;-82
2022/10/13 01:03:30;;;;;;;;;;;;;;;;;;5013448;28;8513;-80
2022/10/13 01:05:58;;;;;;;;;;;;;;;;;;5014080;28;9648;-79
2022/10/13 01:08:26;;;;;;;;;;;;;;;;;;5014317;28;8680;-79
2022/10/13 01:10:54;;;;;;;;;;;;;;;;;;5013929;28;8407;-81
2022/10/13 01:13:38;;;;;;;;;;;;;;;;;;5030552;28;8410;-80
2022/10/13 01:16:22;;;;;;;;;;;;;;;;;;5014011;28;7161;-78
2022/10/13 01:18:55;;;;;;;;;;;;;;;;;;5030253;28;8386;-80
2022/10/13 01:21:42;;;;;;;;;;;;;;;;;;5014354;28;8715;-79
2022/10/13 01:24:10;;;;;;;;;;;;;;;;;;5014390;28;8711;-80
2022/10/13 01:26:51;;;;;;;;;;;;;;;;;;5031215;28;7335;-80
2022/10/13 01:29:33;;;;;;;;;;;;;;;;;;5030490;28;8447;-80
2022/10/13 01:32:12;;;;;;;;;;;;;;;;;;5014819;28;7430;-80
2022/10/13 01:34:46;;;;;;;;;;;;;;;;;;5013904;28;8804;-79
2022/10/13 01:37:11;;;;;;;;;;;;;;;;;;5014088;28;8417;-79
2022/10/13 01:39:42;;;;;;;;;;;;;;;;;;5030213;28;8405;-79
2022/10/13 01:42:17;;;;;;;;;;;;;;;;;;5014270;28;7368;-80
2022/10/13 01:44:48;;;;;;;;;;;;;;;;;;5014246;28;8451;-80
2022/10/13 01:47:15;;;;;;;;;;;;;;;;;;5014038;28;8450;-80
2022/10/13 01:49:42;;;;;;;;;;;;;;;;;;5013476;28;8757;-80
2022/10/13 01:52:14;;;;;;;;;;;;;;;;;;5013987;28;7216;-81
2022/10/13 01:54:39;;;;;;;;;;;;;;;;;;5013504;28;8812;-80
2022/10/13 01:57:25;;;;;;;;;;;;;;;;;;5013719;28;8414;-80
2022/10/13 01:59:50;;;;;;;;;;;;;;;;;;5013534;28;8408;-81
2022/10/13 02:02:25;;;;;;;;;;;;;;;;;;5014097;28;7216;-78
2022/10/13 02:05:13;;;;;;;;;;;;;;;;;;5013803;28;7243;-81
2022/10/13 02:07:45;;;;;;;;;;;;;;;;;;5013368;28;7043;-79
2022/10/13 02:10:20;;;;;;;;;;;;;;;;;;5030292;28;7258;-80
2022/10/13 02:12:56;;;;;;;;;;;;;;;;;;5013615;28;8390;-80
2022/10/13 02:15:28;;;;;;;;;;;;;;;;;;5016515;28;7032;-79
2022/10/13 02:17:54;;;;;;;;;;;;;;;;;;5017518;28;8450;-81
2022/10/13 02:20:20;;;;;;;;;;;;;;;;;;5017650;28;8942;-79
2022/10/13 02:22:51;;;;;;;;;;;;;;;;;;5016974;28;8415;-80
2022/10/13 02:25:17;;;;;;;;;;;;;;;;;;5017971;28;7011;-80
2022/10/13 02:27:43;;;;;;;;;;;;;;;;;;5017436;28;6996;-80
2022/10/13 02:30:09;;;;;;;;;;;;;;;;;;5017439;28;8363;-80
2022/10/13 02:32:35;;;;;;;;;;;;;;;;;;5016887;28;7182;-80
2022/10/13 02:35:00;;;;;;;;;;;;;;;;;;5016881;28;7024;-79
2022/10/13 02:37:26;;;;;;;;;;;;;;;;;;5016649;28;8830;-78
2022/10/13 02:39:51;;;;;;;;;;;;;;;;;;5017896;28;8457;-83
2022/10/13 02:42:17;;;;;;;;;;;;;;;;;;5019924;28;8371;-80
2022/10/13 02:44:42;;;;;;;;;;;;;;;;;;5020127;28;8400;-78
2022/10/13 02:47:08;;;;;;;;;;;;;;;;;;5019962;28;8500;-79
2022/10/13 02:49:33;;;;;;;;;;;;;;;;;;5020657;28;7038;-80
2022/10/13 02:51:59;;;;;;;;;;;;;;;;;;5020526;28;7022;-81
2022/10/13 02:54:24;;;;;;;;;;;;;;;;;;5019947;28;8407;-82
2022/10/13 02:56:50;;;;;;;;;;;;;;;;;;5019956;28;7119;-81
2022/10/13 02:59:15;;;;;;;;;;;;;;;;;;5019645;28;9241;-81
2022/10/13 03:01:43;;;;;;;;;;;;;;;;;;5019890;28;8406;-81
2022/10/13 03:04:09;;;;;;;;;;;;;;;;;;5020329;28;7176;-81
2022/10/13 03:06:35;;;;;;;;;;;;;;;;;;5019498;28;7166;-80
2022/10/13 03:09:00;;;;;;;;;;;;;;;;;;5020915;28;7146;-78
2022/10/13 03:11:26;;;;;;;;;;;;;;;;;;5020030;28;8605;-78
2022/10/13 03:13:51;;;;;;;;;;;;;;;;;;5019651;28;7233;-80
2022/10/13 03:16:17;;;;;;;;;;;;;;;;;;5019621;28;8461;-82
2022/10/13 03:18:42;;;;;;;;;;;;;;;;;;5019647;28;8403;-80
2022/10/13 03:21:09;;;;;;;;;;;;;;;;;;5019513;28;8404;-80
2022/10/13 03:23:35;;;;;;;;;;;;;;;;;;5019429;28;8713;-80
2022/10/13 03:26:01;;;;;;;;;;;;;;;;;;5018808;28;8389;-82
2022/10/13 03:28:27;;;;;;;;;;;;;;;;;;5019196;28;7180;-80
2022/10/13 03:31:03;;;;;;;;;;;;;;;;;;5018995;28;7164;-83
2022/10/13 03:33:28;;;;;;;;;;;;;;;;;;5019275;28;7382;-80
2022/10/13 03:35:57;;;;;;;;;;;;;;;;;;5019193;28;8391;-79
2022/10/13 03:38:22;;;;;;;;;;;;;;;;;;5019424;28;8465;-79
2022/10/13 03:40:48;;;;;;;;;;;;;;;;;;5018890;28;7170;-78
2022/10/13 03:43:13;;;;;;;;;;;;;;;;;;5019221;28;8408;-80
2022/10/13 03:45:39;;;;;;;;;;;;;;;;;;5018654;28;8720;-78
2022/10/13 03:48:05;;;;;;;;;;;;;;;;;;5019134;28;8270;-79
2022/10/13 03:50:30;;;;;;;;;;;;;;;;;;5018586;28;7243;-79
2022/10/13 03:52:56;;;;;;;;;;;;;;;;;;5018960;28;8408;-79
2022/10/13 03:55:21;;;;;;;;;;;;;;;;;;5019179;28;8703;-78
2022/10/13 03:57:46;;;;;;;;;;;;;;;;;;5019212;28;7182;-78
2022/10/13 04:00:12;;;;;;;;;;;;;;;;;;5018686;28;6999;-79
2022/10/13 04:02:38;;;;;;;;;;;;;;;;;;5018587;28;8466;-81
2022/10/13 04:05:04;;;;;;;;;;;;;;;;;;5018186;28;7417;-82
2022/10/13 04:07:29;;;;;;;;;;;;;;;;;;5018410;28;8274;-78
2022/10/13 04:09:55;;;;;;;;;;;;;;;;;;5018368;28;8019;-79
2022/10/13 04:12:21;;;;;;;;;;;;;;;;;;5018604;28;8495;-79
2022/10/13 04:14:46;;;;;;;;;;;;;;;;;;5018417;28;8369;-80
2022/10/13 04:17:11;;;;;;;;;;;;;;;;;;5019280;28;7025;-79
2022/10/13 04:19:37;;;;;;;;;;;;;;;;;;5018579;28;7160;-79
2022/10/13 04:22:03;;;;;;;;;;;;;;;;;;5018289;28;9153;-80
2022/10/13 04:24:28;;;;;;;;;;;;;;;;;;5018466;28;7397;-81
2022/10/13 04:26:54;;;;;;;;;;;;;;;;;;5018327;28;8442;-81
2022/10/13 04:29:19;;;;;;;;;;;;;;;;;;5018299;28;8420;-81
2022/10/13 04:31:45;;;;;;;;;;;;;;;;;;5017765;28;8795;-81
2022/10/13 04:34:11;;;;;;;;;;;;;;;;;;5017794;28;8373;-80
2022/10/13 04:36:37;;;;;;;;;;;;;;;;;;5017756;28;7152;-81
2022/10/13 04:39:03;;;;;;;;;;;;;;;;;;5017396;28;8804;-81
2022/10/13 04:41:29;;;;;;;;;;;;;;;;;;4996102;28;8417;-81
2022/10/13 04:43:55;;;;;;;;;;;;;;;;;;4978797;28;7045;-81
2022/10/13 04:46:24;;;;;;;;;;;;;;;;;;4978503;28;7169;-81
2022/10/13 04:48:49;;;;;;;;;;;;;;;;;;4983446;28;7095;-78
2022/10/13 04:51:17;;;;;;;;;;;;;;;;;;5004173;28;8620;-81
2022/10/13 04:53:43;;;;;;;;;;;;;;;;;;5003039;28;8446;-81
2022/10/13 04:56:10;;;;;;;;;;;;;;;;;;5002289;28;8389;-80
2022/10/13 04:58:36;;;;;;;;;;;;;;;;;;5002144;28;8650;-80
2022/10/13 05:01:02;;;;;;;;;;;;;;;;;;5002424;28;8435;-79
2022/10/13 05:03:28;;;;;;;;;;;;;;;;;;4995210;28;7445;-81
2022/10/13 05:05:53;;;;;;;;;;;;;;;;;;4994252;28;7124;-82
2022/10/13 05:08:19;;;;;;;;;;;;;;;;;;4994670;28;8499;-81
2022/10/13 05:11:11;;;;;;;;;;;;;;;;;;4994146;28;8294;-79
2022/10/13 05:13:37;;;;;;;;;;;;;;;;;;4991794;28;7174;-79
2022/10/13 05:16:11;;;;;;;;;;;;;;;;;;5002093;28;7177;-81
2022/10/13 05:18:37;;;;;;;;;;;;;;;;;;4994732;28;7479;-80
2022/10/13 05:21:10;;;;;;;;;;;;;;;;;;5003567;28;7196;-81
2022/10/13 05:23:36;;;;;;;;;;;;;;;;;;5004269;28;7446;-80
2022/10/13 05:26:04;;;;;;;;;;;;;;;;;;5002964;28;7052;-79
2022/10/13 05:28:29;;;;;;;;;;;;;;;;;;5003264;28;7204;-79
2022/10/13 05:30:55;;;;;;;;;;;;;;;;;;5004291;28;7375;-79
2022/10/13 05:33:20;;;;;;;;;;;;;;;;;;5009509;28;8344;-78
2022/10/13 05:35:46;;;;;;;;;;;;;;;;;;4997498;28;7192;-79
2022/10/13 05:38:11;;;;;;;;;;;;;;;;;;5014097;28;8423;-79
2022/10/13 05:40:37;;;;;;;;;;;;;;;;;;5003036;28;7049;-79
2022/10/13 05:43:03;;;;;;;;;;;;;;;;;;4992972;28;7016;-79
2022/10/13 05:45:31;;;;;;;;;;;;;;;;;;4996437;28;8622;-84
2022/10/13 05:47:57;;;;;;;;;;;;;;;;;;4993867;28;8385;-80
2022/10/13 05:50:23;;;;;;;;;;;;;;;;;;4996437;28;8628;-81
2022/10/13 05:52:50;;;;;;;;;;;;;;;;;;4997116;28;7145;-82
2022/10/13 05:55:17;;;;;;;;;;;;;;;;;;4997629;28;8800;-83
2022/10/13 05:57:47;;;;;;;;;;;;;;;;;;4999144;28;7509;-84
2022/10/13 06:00:15;;;;;;;;;;;;;;;;;;4994276;28;7374;-84
2022/10/13 06:02:49;;;;;;;;;;;;;;;;;;4998017;28;7248;-84
2022/10/13 06:05:17;;;;;;;;;;;;;;;;;;4997707;28;7109;-84
2022/10/13 06:07:45;;;;;;;;;;;;;;;;;;4998020;28;7065;-83
2022/10/13 06:10:11;;;;;;;;;;;;;;;;;;4997880;28;8953;-84
2022/10/13 06:12:37;;;;;;;;;;;;;;;;;;4997932;28;7478;-84
2022/10/13 06:15:04;;;;;;;;;;;;;;;;;;4998057;28;8454;-85
2022/10/13 06:17:29;;;;;;;;;;;;;;;;;;4998150;28;8665;-84
2022/10/13 06:19:55;;;;;;;;;;;;;;;;;;4997720;28;8381;-83
2022/10/13 06:22:20;;;;;;;;;;;;;;;;;;4997486;28;8658;-83
2022/10/13 06:24:46;;;;;;;;;;;;;;;;;;4997099;28;7145;-84
2022/10/13 06:27:12;;;;;;;;;;;;;;;;;;4998221;28;9303;-83
2022/10/13 06:29:37;;;;;;;;;;;;;;;;;;4997630;28;8342;-82
2022/10/13 06:32:03;;;;;;;;;;;;;;;;;;4997517;28;8368;-84
2022/10/13 06:34:29;;;;;;;;;;;;;;;;;;4997288;28;6868;-83
2022/10/13 06:36:55;;;;;;;;;;;;;;;;;;4997666;28;7649;-84
2022/10/13 06:39:20;;;;;;;;;;;;;;;;;;4996597;28;8624;-83
2022/10/13 06:41:45;;;;;;;;;;;;;;;;;;4997152;28;7018;-85
2022/10/13 06:44:11;;;;;;;;;;;;;;;;;;4997386;28;8462;-85
2022/10/13 06:46:36;;;;;;;;;;;;;;;;;;4996901;28;7230;-84
2022/10/13 06:49:02;;;;;;;;;;;;;;;;;;4996961;28;8606;-82
2022/10/13 06:51:27;;;;;;;;;;;;;;;;;;4996903;28;9010;-83
2022/10/13 06:53:54;;;;;;;;;;;;;;;;;;4997225;28;6935;-82
2022/10/13 06:56:19;;;;;;;;;;;;;;;;;;4996884;28;7222;-82
2022/10/13 06:58:45;;;;;;;;;;;;;;;;;;4997170;28;8989;-82
2022/10/13 07:01:12;;;;;;;;;;;;;;;;;;4996786;28;7520;-84
2022/10/13 07:03:37;;;;;;;;;;;;;;;;;;4996719;28;8317;-83
2022/10/13 07:06:04;;;;;;;;;;;;;;;;;;4996943;28;7194;-83
2022/10/13 07:08:30;;;;;;;;;;;;;;;;;;4997199;28;7336;-84
2022/10/13 07:10:56;;;;;;;;;;;;;;;;;;4996548;28;7138;-84
2022/10/13 07:13:22;;;;;;;;;;;;;;;;;;4992781;28;9066;-77
2022/10/13 07:15:47;;;;;;;;;;;;;;;;;;4995324;28;7145;-84
2022/10/13 07:18:13;;;;;;;;;;;;;;;;;;4996187;28;7141;-83
2022/10/13 07:20:38;;;;;;;;;;;;;;;;;;4996114;28;7210;-85
2022/10/13 07:23:04;;;;;;;;;;;;;;;;;;4994395;28;8437;-83
2022/10/13 07:25:29;;;;;;;;;;;;;;;;;;4996213;28;8740;-83
2022/10/13 07:27:55;;;;;;;;;;;;;;;;;;4996422;28;8417;-83
2022/10/13 07:30:21;;;;;;;;;;;;;;;;;;4996039;28;8363;-83
2022/10/13 07:32:47;;;;;;;;;;;;;;;;;;4995988;28;7337;-85
2022/10/13 07:35:13;;;;;;;;;;;;;;;;;;4996418;28;7062;-84
2022/10/13 07:37:39;;;;;;;;;;;;;;;;;;4996242;28;7236;-84
2022/10/13 07:40:05;;;;;;;;;;;;;;;;;;4996581;28;7218;-83
2022/10/13 07:42:30;;;;;;;;;;;;;;;;;;4996483;28;7174;-82
2022/10/13 07:44:56;;;;;;;;;;;;;;;;;;4995718;28;7021;-83
2022/10/13 07:47:22;;;;;;;;;;;;;;;;;;4995344;28;8407;-83
2022/10/13 07:49:47;;;;;;;;;;;;;;;;;;4995280;28;6798;-83
2022/10/13 07:52:13;;;;;;;;;;;;;;;;;;4995519;28;7161;-85
2022/10/13 07:54:38;;;;;;;;;;;;;;;;;;4995649;28;8427;-83
2022/10/13 07:57:04;;;;;;;;;;;;;;;;;;4994526;28;7088;-82
2022/10/13 07:59:32;;;;;;;;;;;;;;;;;;4995131;28;8824;-83
2022/10/13 08:01:59;;;;;;;;;;;;;;;;;;4995696;28;6998;-83
2022/10/13 08:04:32;;;;;;;;;;;;;;;;;;4994539;28;8430;-83
2022/10/13 08:06:57;;;;;;;;;;;;;;;;;;4994915;28;6793;-83
2022/10/13 08:09:24;;;;;;;;;;;;;;;;;;4995822;28;8411;-82
2022/10/13 08:11:49;;;;;;;;;;;;;;;;;;4995563;28;7358;-83
2022/10/13 08:14:15;;;;;;;;;;;;;;;;;;4995624;28;8698;-81
2022/10/13 08:16:44;;;;;;;;;;;;;;;;;;4995695;28;8371;-83
2022/10/13 08:19:14;;;;;;;;;;;;;;;;;;4995952;28;7179;-81
2022/10/13 08:21:41;;;;;;;;;;;;;;;;;;4995639;28;7156;-84
2022/10/13 08:24:10;;;;;;;;;;;;;;;;;;4994815;28;9012;-81
2022/10/13 08:26:35;;;;;;;;;;;;;;;;;;4994288;28;8320;-84
2022/10/13 08:29:01;;;;;;;;;;;;;;;;;;4993747;28;8436;-83
2022/10/13 08:31:27;;;;;;;;;;;;;;;;;;4994801;28;8480;-83
2022/10/13 08:33:52;;;;;;;;;;;;;;;;;;4993852;28;7221;-80
2022/10/13 08:36:18;;;;;;;;;;;;;;;;;;4995128;28;8385;-80
2022/10/13 08:38:44;;;;;;;;;;;;;;;;;;4994990;28;8122;-82
2022/10/13 08:41:14;;;;;;;;;;;;;;;;;;4991540;28;8601;-80
2022/10/13 08:43:43;;;;;;;;;;;;;;;;;;4991488;28;7189;-80
2022/10/13 08:46:11;;;;;;;;;;;;;;;;;;4991823;28;7029;-83
2022/10/13 08:48:41;;;;;;;;;;;;;;;;;;4992041;28;8436;-82
2022/10/13 08:51:07;;;;;;;;;;;;;;;;;;4991746;28;8281;-83
2022/10/13 08:53:44;;;;;;;;;;;;;;;;;;4992137;28;8707;-83
2022/10/13 08:56:15;;;;;;;;;;;;;;;;;;4992095;28;8782;-83
2022/10/13 08:58:43;;;;;;;;;;;;;;;;;;4991299;28;8435;-83
2022/10/13 09:01:11;;;;;;;;;;;;;;;;;;4991204;28;8253;-83
2022/10/13 09:03:48;;;;;;;;;;;;;;;;;;4991264;28;8887;-83
2022/10/13 09:06:30;;;;;;;;;;;;;;;;;;4991654;28;7126;-83
2022/10/13 09:08:58;;;;;;;;;;;;;;;;;;4991601;28;7037;-83
2022/10/13 09:11:26;;;;;;;;;;;;;;;;;;4991275;28;6869;-83
2022/10/13 09:13:58;;;;;;;;;;;;;;;;;;4991348;28;7576;-83
2022/10/13 09:16:37;;;;;;;;;;;;;;;;;;4990330;28;7105;-83
2022/10/13 09:19:24;;;;;;;;;;;;;;;;;;4991306;28;8380;-80
2022/10/13 09:21:52;;;;;;;;;;;;;;;;;;4974368;28;7154;-84
2022/10/13 09:24:19;;;;;;;;;;;;;;;;;;4991153;28;7043;-81
2022/10/13 09:26:47;;;;;;;;;;;;;;;;;;4991047;28;8408;-82
2022/10/13 09:29:23;;;;;;;;;;;;;;;;;;4991161;28;8512;-82
2022/10/13 09:31:49;;;;;;;;;;;;;;;;;;4991388;28;8307;-82
2022/10/13 09:34:24;;;;;;;;;;;;;;;;;;4991886;28;8387;-80
2022/10/13 09:37:01;;;;;;;;;;;;;;;;;;4990869;28;7168;-82
2022/10/13 09:39:28;;;;;;;;;;;;;;;;;;4991253;28;7246;-82
2022/10/13 09:42:12;;;;;;;;;;;;;;;;;;4990874;28;8725;-80
2022/10/13 09:44:38;;;;;;;;;;;;;;;;;;4991057;28;8688;-80
2022/10/13 09:47:04;;;;;;;;;;;;;;;;;;4990286;28;8409;-80
2022/10/13 09:49:29;;;;;;;;;;;;;;;;;;4990468;28;8479;-80
2022/10/13 09:52:13;;;;;;;;;;;;;;;;;;4990451;28;7205;-80
2022/10/13 09:54:38;;;;;;;;;;;;;;;;;;4991052;28;8407;-81
2022/10/13 09:57:15;;;;;;;;;;;;;;;;;;4990303;28;6985;-82
2022/10/13 09:59:48;;;;;;;;;;;;;;;;;;4989683;28;8490;-84
2022/10/13 10:02:19;;;;;;;;;;;;;;;;;;4990721;28;7121;-85
2022/10/13 10:04:45;;;;;;;;;;;;;;;;;;4990984;28;7098;-83
2022/10/13 10:07:16;;;;;;;;;;;;;;;;;;4990798;28;7150;-83
2022/10/13 10:09:52;;;;;;;;;;;;;;;;;;4991132;28;8469;-81
2022/10/13 10:12:21;;;;;;;;;;;;;;;;;;4990926;28;7062;-83
2022/10/13 10:14:49;;;;;;;;;;;;;;;;;;4990721;28;7038;-84
2022/10/13 10:17:33;;;;;;;;;;;;;;;;;;4990699;28;8308;-84
2022/10/13 10:20:02;;;;;;;;;;;;;;;;;;4990296;28;7054;-83
2022/10/13 10:22:27;;;;;;;;;;;;;;;;;;4990863;28;8360;-85
2022/10/13 10:25:17;;;;;;;;;;;;;;;;;;4990599;28;8741;-84
2022/10/13 10:27:48;;;;;;;;;;;;;;;;;;4991591;28;7220;-84
2022/10/13 10:30:16;;;;;;;;;;;;;;;;;;4990917;28;7496;-84
2022/10/13 10:33:00;;;;;;;;;;;;;;;;;;4991167;28;7042;-84
2022/10/13 10:35:26;;;;;;;;;;;;;;;;;;4992021;28;8425;-83
2022/10/13 10:38:20;;;;;;;;;;;;;;;;;;4993892;28;7012;-86
2022/10/13 10:40:58;;;;;;;;;;;;;;;;;;4993715;28;8550;-83
2022/10/13 10:43:30;;;;;;;;;;;;;;;;;;4994258;28;8456;-83
2022/10/13 10:45:57;;;;;;;;;;;;;;;;;;4993826;28;8428;-84
2022/10/13 10:48:27;;;;;;;;;;;;;;;;;;4994301;28;8396;-84
2022/10/13 10:50:54;;;;;;;;;;;;;;;;;;4994017;28;7014;-84
2022/10/13 10:53:48;;;;;;;;;;;;;;;;;;4995025;28;7239;-83
2022/10/13 10:56:16;;;;;;;;;;;;;;;;;;4994411;28;8264;-83
2022/10/13 10:58:45;;;;;;;;;;;;;;;;;;4993897;28;7114;-81
2022/10/13 11:01:10;;;;;;;;;;;;;;;;;;4993992;28;8420;-83
2022/10/13 11:03:45;;;;;;;;;;;;;;;;;;4994010;28;8782;-82
2022/10/13 11:06:16;;;;;;;;;;;;;;;;;;4993738;28;8601;-84
2022/10/13 11:08:45;;;;;;;;;;;;;;;;;;4993307;28;7436;-80
2022/10/13 11:11:24;;;;;;;;;;;;;;;;;;4999545;28;7135;-81
2022/10/13 11:13:52;;;;;;;;;;;;;;;;;;5005508;28;7174;-81
2022/10/13 11:16:29;;;;;;;;;;;;;;;;;;5004419;28;8567;-80
2022/10/13 11:19:04;;;;;;;;;;;;;;;;;;5011589;28;8411;-84
2022/10/13 11:22:05;;;;;;;;;;;;;;;;;;5011596;28;7275;-80
2022/10/13 11:24:35;;;;;;;;;;;;;;;;;;4985016;28;7156;-78
2022/10/13 11:27:06;;;;;;;;;;;;;;;;;;5010284;28;7604;-81
2022/10/13 11:29:56;;;;;;;;;;;;;;;;;;4975957;28;7105;-79
2022/10/13 11:32:31;;;;;;;;;;;;;;;;;;4975654;28;7434;-81
2022/10/13 11:35:12;;;;;;;;;;;;;;;;;;4975799;28;8415;-83
2022/10/13 11:37:52;;;;;;;;;;;;;;;;;;4974640;28;7031;-84
2022/10/13 11:40:32;;;;;;;;;;;;;;;;;;4994173;28;8390;-83
2022/10/13 11:43:04;;;;;;;;;;;;;;;;;;4979991;28;7171;-82
2022/10/13 11:45:43;;;;;;;;;;;;;;;;;;5003908;28;7147;-77
2022/10/13 11:48:09;;;;;;;;;;;;;;;;;;4997125;28;8435;-81
2022/10/13 11:50:47;;;;;;;;;;;;;;;;;;4998474;28;7150;-83
2022/10/13 11:53:22;;;;;;;;;;;;;;;;;;4998535;28;7035;-83
2022/10/13 11:55:50;;;;;;;;;;;;;;;;;;4997644;28;8742;-82
2022/10/13 11:58:18;;;;;;;;;;;;;;;;;;4996731;28;8479;-77
2022/10/13 12:00:50;;;;;;;;;;;;;;;;;;4994123;28;7442;-83
2022/10/13 12:03:21;;;;;;;;;;;;;;;;;;4997769;28;8387;-83
2022/10/13 12:05:48;;;;;;;;;;;;;;;;;;5034168;28;8436;-84
2022/10/13 12:08:14;;;;;;;;;;;;;;;;;;5018330;28;8832;-82
2022/10/13 12:10:40;;;;;;;;;;;;;;;;;;5008503;28;7128;-82
2022/10/13 12:13:06;;;;;;;;;;;;;;;;;;5014643;28;9013;-82
2022/10/13 12:15:35;;;;;;;;;;;;;;;;;;5013552;28;8412;-84
2022/10/13 12:18:01;;;;;;;;;;;;;;;;;;5006376;28;8886;-80
2022/10/13 12:20:32;;;;;;;;;;;;;;;;;;4998552;28;7001;-80
2022/10/13 12:22:58;;;;;;;;;;;;;;;;;;4998364;28;7203;-82
2022/10/13 12:25:26;;;;;;;;;;;;;;;;;;4998246;28;8434;-83
2022/10/13 12:27:54;;;;;;;;;;;;;;;;;;4998410;28;7043;-83
2022/10/13 12:30:25;;;;;;;;;;;;;;;;;;4998898;28;7360;-84
2022/10/13 12:32:52;;;;;;;;;;;;;;;;;;4996619;28;8729;-84
2022/10/13 12:35:33;;;;;;;;;;;;;;;;;;5016587;28;8367;-83
2022/10/13 12:38:06;;;;;;;;;;;;;;;;;;5017497;28;8414;-83
2022/10/13 12:40:33;;;;;;;;;;;;;;;;;;5017709;28;7178;-83
2022/10/13 12:42:59;;;;;;;;;;;;;;;;;;5018169;28;9430;-83
2022/10/13 12:45:33;;;;;;;;;;;;;;;;;;5017753;28;7161;-82
2022/10/13 12:47:59;;;;;;;;;;;;;;;;;;5017489;28;9297;-84
2022/10/13 12:50:24;;;;;;;;;;;;;;;;;;4996673;28;8573;-81
2022/10/13 12:53:08;;;;;;;;;;;;;;;;;;4995177;28;8487;-83
2022/10/13 12:55:37;;;;;;;;;;;;;;;;;;4978278;28;8984;-83
2022/10/13 12:58:03;;;;;;;;;;;;;;;;;;4994176;28;7053;-84
2022/10/13 13:00:29;;;;;;;;;;;;;;;;;;4994328;28;8484;-83
2022/10/13 13:02:59;;;;;;;;;;;;;;;;;;4994864;28;8604;-83
2022/10/13 13:05:33;;;;;;;;;;;;;;;;;;4997037;28;8720;-83
2022/10/13 13:07:59;;;;;;;;;;;;;;;;;;5013921;28;8490;-83
2022/10/13 13:10:25;;;;;;;;;;;;;;;;;;5014005;28;8669;-83
2022/10/13 13:12:53;;;;;;;;;;;;;;;;;;5015175;28;9352;-83
2022/10/13 13:15:33;;;;;;;;;;;;;;;;;;5013892;28;7239;-82
2022/10/13 13:18:17;;;;;;;;;;;;;;;;;;5013918;28;8436;-82
2022/10/13 13:20:43;;;;;;;;;;;;;;;;;;5014155;28;8730;-85
2022/10/13 13:23:08;;;;;;;;;;;;;;;;;;5028577;28;8508;-82
2022/10/13 13:25:34;;;;;;;;;;;;;;;;;;5004009;28;8422;-84
2022/10/13 13:28:02;;;;;;;;;;;;;;;;;;5014048;28;8544;-83
2022/10/13 13:30:27;;;;;;;;;;;;;;;;;;4997067;28;8498;-84
2022/10/13 13:32:53;;;;;;;;;;;;;;;;;;5013741;28;7328;-85
2022/10/13 13:35:18;;;;;;;;;;;;;;;;;;5013622;28;8820;-84
2022/10/13 13:37:49;;;;;;;;;;;;;;;;;;5013787;28;8711;-84
2022/10/13 13:40:17;;;;;;;;;;;;;;;;;;4996960;28;8415;-84
2022/10/13 13:42:43;;;;;;;;;;;;;;;;;;4997815;28;9388;-85
2022/10/13 13:45:18;;;;;;;;;;;;;;;;;;5013636;28;7023;-84
2022/10/13 13:47:44;;;;;;;;;;;;;;;;;;4997546;28;8260;-83
2022/10/13 13:50:21;;;;;;;;;;;;;;;;;;4997514;28;7153;-84
2022/10/13 13:52:47;;;;;;;;;;;;;;;;;;4997609;28;8293;-84
2022/10/13 13:55:12;;;;;;;;;;;;;;;;;;5013405;28;8703;-81
2022/10/13 13:57:38;;;;;;;;;;;;;;;;;;4996937;28;7230;-82
2022/10/13 14:00:04;;;;;;;;;;;;;;;;;;5012992;28;8402;-84
2022/10/13 14:02:30;;;;;;;;;;;;;;;;;;4997244;28;8387;-84
2022/10/13 14:04:56;;;;;;;;;;;;;;;;;;4997540;28;8413;-77
2022/10/13 14:07:21;;;;;;;;;;;;;;;;;;5014247;28;6979;-84
2022/10/13 14:09:47;;;;;;;;;;;;;;;;;;5014882;28;8419;-84
2022/10/13 14:12:12;;;;;;;;;;;;;;;;;;5000789;28;8512;-84
2022/10/13 14:14:38;;;;;;;;;;;;;;;;;;5000647;28;8497;-83
2022/10/13 14:17:04;;;;;;;;;;;;;;;;;;5000910;28;8382;-84
2022/10/13 14:19:30;;;;;;;;;;;;;;;;;;5001025;28;8435;-84
2022/10/13 14:21:55;;;;;;;;;;;;;;;;;;5000697;28;8282;-84
2022/10/13 14:24:21;;;;;;;;;;;;;;;;;;5000712;28;8416;-84
2022/10/13 14:26:46;;;;;;;;;;;;;;;;;;5001243;28;7118;-83
2022/10/13 14:29:12;;;;;;;;;;;;;;;;;;5001361;28;8391;-84
2022/10/13 14:31:38;;;;;;;;;;;;;;;;;;5002272;28;7030;-84
2022/10/13 14:34:03;;;;;;;;;;;;;;;;;;5000981;28;8574;-83
2022/10/13 14:36:29;;;;;;;;;;;;;;;;;;5000506;28;7601;-84
2022/10/13 14:38:54;;;;;;;;;;;;;;;;;;5000774;28;8798;-85
2022/10/13 14:41:21;;;;;;;;;;;;;;;;;;4997084;28;8703;-84
2022/10/13 14:43:46;;;;;;;;;;;;;;;;;;4997261;28;7182;-84
2022/10/13 14:46:13;;;;;;;;;;;;;;;;;;4997287;28;8379;-84
2022/10/13 14:48:38;;;;;;;;;;;;;;;;;;4996463;28;8335;-81
2022/10/13 14:51:05;;;;;;;;;;;;;;;;;;4996773;28;7151;-83
2022/10/13 14:53:41;;;;;;;;;;;;;;;;;;4995207;28;7430;-81
2022/10/13 14:56:17;;;;;;;;;;;;;;;;;;5006540;28;8372;-83
2022/10/13 14:58:43;;;;;;;;;;;;;;;;;;5016404;28;8653;-83
2022/10/13 15:01:09;;;;;;;;;;;;;;;;;;4997937;28;7259;-82
2022/10/13 15:03:34;;;;;;;;;;;;;;;;;;5013125;28;7438;-84
2022/10/13 15:05:59;;;;;;;;;;;;;;;;;;5016307;28;8433;-83
2022/10/13 15:08:25;;;;;;;;;;;;;;;;;;5016179;28;8375;-83
2022/10/13 15:10:57;;;;;;;;;;;;;;;;;;5016437;28;7175;-83
2022/10/13 15:13:23;;;;;;;;;;;;;;;;;;5016317;28;7057;-83
2022/10/13 15:15:49;;;;;;;;;;;;;;;;;;5016370;28;8479;-84
2022/10/13 15:18:14;;;;;;;;;;;;;;;;;;5016111;28;8393;-83
2022/10/13 15:20:44;;;;;;;;;;;;;;;;;;5016702;28;8382;-83
2022/10/13 15:23:09;;;;;;;;;;;;;;;;;;5014872;28;7236;-84
2022/10/13 15:25:35;;;;;;;;;;;;;;;;;;5016027;28;8703;-83
2022/10/13 15:28:00;;;;;;;;;;;;;;;;;;5016082;28;7205;-85
2022/10/13 15:30:26;;;;;;;;;;;;;;;;;;5016295;28;7161;-84
2022/10/13 15:32:51;;;;;;;;;;;;;;;;;;5015870;28;7021;-83
2022/10/13 15:35:17;;;;;;;;;;;;;;;;;;5016087;28;7211;-84
2022/10/13 15:37:42;;;;;;;;;;;;;;;;;;5015465;28;8469;-83
2022/10/13 15:40:08;;;;;;;;;;;;;;;;;;5015395;28;8686;-80
2022/10/13 15:42:34;;;;;;;;;;;;;;;;;;5019146;28;7188;-82
2022/10/13 15:44:59;;;;;;;;;;;;;;;;;;5018940;28;7091;-85
2022/10/13 15:47:25;;;;;;;;;;;;;;;;;;5019045;28;8404;-83
2022/10/13 15:49:50;;;;;;;;;;;;;;;;;;5018372;28;8419;-84
2022/10/13 15:52:16;;;;;;;;;;;;;;;;;;5019500;28;8720;-84
2022/10/13 15:54:42;;;;;;;;;;;;;;;;;;5018012;28;8788;-83
2022/10/13 15:57:07;;;;;;;;;;;;;;;;;;5018174;28;7011;-84
2022/10/13 15:59:33;;;;;;;;;;;;;;;;;;5018335;28;8400;-84
2022/10/13 16:01:58;;;;;;;;;;;;;;;;;;5019023;28;8357;-84
2022/10/13 16:04:23;;;;;;;;;;;;;;;;;;5017652;28;8417;-81
2022/10/13 16:06:49;;;;;;;;;;;;;;;;;;5017476;28;8328;-83
2022/10/13 16:09:14;;;;;;;;;;;;;;;;;;5017548;28;8469;-82
2022/10/13 16:11:40;;;;;;;;;;;;;;;;;;5018740;28;8540;-86
2022/10/13 16:14:06;;;;;;;;;;;;;;;;;;5018204;28;8406;-83
2022/10/13 16:16:31;;;;;;;;;;;;;;;;;;5018533;28;7147;-83
2022/10/13 16:18:57;;;;;;;;;;;;;;;;;;5018576;28;8674;-84
2022/10/13 16:21:24;;;;;;;;;;;;;;;;;;5018601;28;8450;-81
2022/10/13 16:23:51;;;;;;;;;;;;;;;;;;5015473;28;7254;-83
2022/10/13 16:26:17;;;;;;;;;;;;;;;;;;5018201;28;8580;-83
2022/10/13 16:28:43;;;;;;;;;;;;;;;;;;5019892;28;8458;-85
2022/10/13 16:31:13;;;;;;;;;;;;;;;;;;5018449;28;8718;-84
2022/10/13 16:33:40;;;;;;;;;;;;;;;;;;5017942;28;8524;-84
2022/10/13 16:36:10;;;;;;;;;;;;;;;;;;5017868;28;8413;-85
2022/10/13 16:38:36;;;;;;;;;;;;;;;;;;5017120;28;7060;-83
2022/10/13 16:41:05;;;;;;;;;;;;;;;;;;5017061;28;7594;-84
2022/10/13 16:43:31;;;;;;;;;;;;;;;;;;5017752;28;7092;-84
2022/10/13 16:45:58;;;;;;;;;;;;;;;;;;5017700;28;8634;-83
2022/10/13 16:48:23;;;;;;;;;;;;;;;;;;5018062;28;7170;-83
2022/10/13 16:50:49;;;;;;;;;;;;;;;;;;5017965;28;9528;-84
2022/10/13 16:53:15;;;;;;;;;;;;;;;;;;5017660;28;8676;-84
2022/10/13 16:55:41;;;;;;;;;;;;;;;;;;5017742;28;7011;-81
2022/10/13 16:58:07;;;;;;;;;;;;;;;;;;5017857;28;8706;-82
2022/10/13 17:00:34;;;;;;;;;;;;;;;;;;5018085;28;7137;-84
2022/10/13 17:02:59;;;;;;;;;;;;;;;;;;5017488;28;8424;-83
2022/10/13 17:05:25;;;;;;;;;;;;;;;;;;5017677;28;8578;-84
2022/10/13 17:07:51;;;;;;;;;;;;;;;;;;5017885;28;7218;-83
2022/10/13 17:10:16;;;;;;;;;;;;;;;;;;5018253;28;7189;-84
2022/10/13 17:12:42;;;;;;;;;;;;;;;;;;5017642;28;8422;-86